UAE215 OMDB-YSSY
Flight info
| Callsign | UAE215 |
|---|---|
| Flight time | N/A |
| Altitude | 31000 |
| Route | ANVIX5G ANVIX L223 TARDI N629 GIDAN P570 EMURU M300 VASTU P895 BIKOK M641 MELIN/N0504F330 M641 DOGAR DCT DAOVO DCT PIBED DCT 09S094E 10S095E DCT POROR/N0494F350 DCT 19S106E 21S109E DCT ATLOD DCT ISDOR DCT LST DCT FRT/N0479F370 DCT ENTRE DCT CDU J149 WHA J21 BORLI H205 CULIN Y59 RIVET RIVET4 |
| Aircraft | B77W/H-SDE1E2E3FGHIJ2J3J4J5M1RWXY/LB1D1 |
Departure
| Time | 2026-05-08 03:01 |
|---|---|
| Airport | Dubai International Airport (OMDB) |
Arrival
| Time | N/A |
|---|---|
| Airport | Sydney Kingsford Smith International Airport (YSSY) |
| Time | Latitude | Longitude | Altitude | Speed | Heading |
|---|---|---|---|---|---|
| 2026-05-08 02:12 | 25.24959 | 55.36147 | 25 ft | 0 kts | 212° |
| 2026-05-08 02:54 | 25.24960 | 55.36148 | 24 ft | 0 kts | 212° |
| 2026-05-08 02:55 | 25.24961 | 55.36148 | 24 ft | 0 kts | 212° |
| 2026-05-08 02:55 | 25.24985 | 55.36165 | 27 ft | 3 kts | 212° |
| 2026-05-08 02:55 | 25.25000 | 55.36176 | 25 ft | 3 kts | 218° |
| 2026-05-08 02:56 | 25.25013 | 55.36189 | 25 ft | 3 kts | 233° |
| 2026-05-08 02:56 | 25.25023 | 55.36206 | 25 ft | 3 kts | 249° |
| 2026-05-08 02:56 | 25.25028 | 55.36226 | 25 ft | 3 kts | 265° |
| 2026-05-08 02:56 | 25.25027 | 55.36245 | 25 ft | 3 kts | 281° |
| 2026-05-08 02:57 | 25.25022 | 55.36264 | 31 ft | 1 kts | 297° |
| 2026-05-08 02:57 | 25.25056 | 55.36180 | 28 ft | 18 kts | 297° |
| 2026-05-08 02:57 | 25.25127 | 55.36047 | 25 ft | 21 kts | 301° |
| 2026-05-08 02:58 | 25.25204 | 55.35908 | 21 ft | 22 kts | 302° |
| 2026-05-08 02:58 | 25.25285 | 55.35763 | 19 ft | 16 kts | 301° |
| 2026-05-08 02:58 | 25.25363 | 55.35686 | 17 ft | 16 kts | 359° |
| 2026-05-08 02:58 | 25.25462 | 55.35740 | 19 ft | 16 kts | 31° |
| 2026-05-08 02:59 | 25.25494 | 55.35763 | 19 ft | 0 kts | 32° |
| 2026-05-08 02:59 | 25.25497 | 55.35765 | 19 ft | 1 kts | 33° |
| 2026-05-08 02:59 | 25.25501 | 55.35767 | 18 ft | 3 kts | 33° |
| 2026-05-08 02:59 | 25.25574 | 55.35818 | 17 ft | 9 kts | 31° |
| 2026-05-08 03:00 | 25.25591 | 55.35892 | 17 ft | 14 kts | 118° |
| 2026-05-08 03:00 | 25.25558 | 55.35952 | 18 ft | 0 kts | 122° |
| 2026-05-08 03:00 | 25.25500 | 55.36055 | 22 ft | 52 kts | 122° |
| 2026-05-08 03:00 | 25.25155 | 55.36673 | 26 ft | 136 kts | 121° |
| 2026-05-08 03:01 | 25.24516 | 55.37816 | 46 ft | 212 kts | 121° |
| 2026-05-08 03:01 | 25.23655 | 55.39367 | 439 ft | 250 kts | 123° |
| 2026-05-08 03:01 | 25.22754 | 55.40968 | 1883 ft | 240 kts | 123° |
| 2026-05-08 03:01 | 25.21905 | 55.42503 | 2826 ft | 232 kts | 123° |
| 2026-05-08 03:02 | 25.21019 | 55.44033 | 3144 ft | 243 kts | 124° |
| 2026-05-08 03:02 | 25.20148 | 55.45664 | 3444 ft | 256 kts | 120° |
| 2026-05-08 03:02 | 25.19228 | 55.47395 | 3830 ft | 266 kts | 122° |
| 2026-05-08 03:02 | 25.18231 | 55.49135 | 4326 ft | 270 kts | 122° |
| 2026-05-08 03:03 | 25.17226 | 55.50899 | 4843 ft | 270 kts | 122° |
| 2026-05-08 03:03 | 25.16227 | 55.52660 | 5016 ft | 271 kts | 121° |
| 2026-05-08 03:03 | 25.15226 | 55.54439 | 5015 ft | 276 kts | 122° |
| 2026-05-08 03:03 | 25.14220 | 55.56227 | 4999 ft | 273 kts | 122° |
| 2026-05-08 03:04 | 25.13235 | 55.58008 | 4986 ft | 272 kts | 121° |
| 2026-05-08 03:04 | 25.12248 | 55.59818 | 5038 ft | 283 kts | 123° |
| 2026-05-08 03:04 | 25.11137 | 55.61596 | 5029 ft | 285 kts | 130° |
| 2026-05-08 03:04 | 25.09734 | 55.63235 | 5034 ft | 299 kts | 137° |
| 2026-05-08 03:05 | 25.08183 | 55.64792 | 5023 ft | 303 kts | 139° |
| 2026-05-08 03:05 | 25.06601 | 55.66318 | 5163 ft | 302 kts | 140° |
| 2026-05-08 03:05 | 25.05019 | 55.67849 | 5744 ft | 304 kts | 140° |
| 2026-05-08 03:05 | 25.03406 | 55.69399 | 6265 ft | 310 kts | 140° |
| 2026-05-08 03:06 | 25.01766 | 55.70962 | 6787 ft | 313 kts | 140° |
| 2026-05-08 03:06 | 25.00143 | 55.72522 | 7395 ft | 314 kts | 139° |
| 2026-05-08 03:06 | 24.98501 | 55.74115 | 7964 ft | 316 kts | 139° |
| 2026-05-08 03:06 | 24.96839 | 55.75732 | 8524 ft | 318 kts | 138° |
| 2026-05-08 03:07 | 24.95177 | 55.77358 | 9030 ft | 322 kts | 138° |
| 2026-05-08 03:07 | 24.93503 | 55.79010 | 9563 ft | 323 kts | 138° |
| 2026-05-08 03:07 | 24.91823 | 55.80631 | 10325 ft | 320 kts | 139° |
| 2026-05-08 03:07 | 24.90174 | 55.82276 | 10734 ft | 324 kts | 138° |
| 2026-05-08 03:08 | 24.88437 | 55.83950 | 10877 ft | 341 kts | 139° |
| 2026-05-08 03:08 | 24.86596 | 55.85696 | 11036 ft | 357 kts | 138° |
| 2026-05-08 03:08 | 24.84704 | 55.87506 | 11184 ft | 375 kts | 138° |
| 2026-05-08 03:08 | 24.82719 | 55.89424 | 11569 ft | 384 kts | 137° |
| 2026-05-08 03:09 | 24.80700 | 55.91378 | 12109 ft | 387 kts | 137° |
| 2026-05-08 03:09 | 24.78678 | 55.93337 | 12832 ft | 387 kts | 137° |
| 2026-05-08 03:09 | 24.76663 | 55.95306 | 13474 ft | 389 kts | 136° |
| 2026-05-08 03:09 | 24.74687 | 55.97355 | 13926 ft | 392 kts | 135° |
| 2026-05-08 03:10 | 24.72702 | 55.99454 | 14392 ft | 399 kts | 135° |
| 2026-05-08 03:10 | 24.70689 | 56.01554 | 15054 ft | 398 kts | 135° |
| 2026-05-08 03:10 | 24.68688 | 56.03621 | 15522 ft | 403 kts | 136° |
| 2026-05-08 03:10 | 24.66626 | 56.05731 | 15997 ft | 407 kts | 136° |
| 2026-05-08 03:11 | 24.64540 | 56.07860 | 16502 ft | 410 kts | 136° |
| 2026-05-08 03:11 | 24.62445 | 56.10002 | 17048 ft | 412 kts | 136° |
| 2026-05-08 03:11 | 24.60340 | 56.12154 | 17580 ft | 414 kts | 136° |
| 2026-05-08 03:11 | 24.58225 | 56.14331 | 18045 ft | 418 kts | 136° |
| 2026-05-08 03:12 | 24.56158 | 56.16584 | 18491 ft | 421 kts | 132° |
| 2026-05-08 03:12 | 24.54190 | 56.18999 | 18910 ft | 426 kts | 130° |
| 2026-05-08 03:12 | 24.52268 | 56.21496 | 19367 ft | 429 kts | 129° |
| 2026-05-08 03:12 | 24.50382 | 56.23980 | 19747 ft | 432 kts | 129° |
| 2026-05-08 03:13 | 24.48435 | 56.26521 | 20091 ft | 437 kts | 130° |
| 2026-05-08 03:13 | 24.46456 | 56.29070 | 20490 ft | 440 kts | 130° |
| 2026-05-08 03:13 | 24.44459 | 56.31627 | 20891 ft | 442 kts | 130° |
| 2026-05-08 03:13 | 24.42443 | 56.34193 | 21212 ft | 447 kts | 131° |
| 2026-05-08 03:14 | 24.40400 | 56.36783 | 21526 ft | 451 kts | 131° |
| 2026-05-08 03:14 | 24.38340 | 56.39393 | 21904 ft | 453 kts | 131° |
| 2026-05-08 03:14 | 24.36280 | 56.42012 | 22270 ft | 455 kts | 131° |
| 2026-05-08 03:14 | 24.34229 | 56.44612 | 22576 ft | 458 kts | 131° |
| 2026-05-08 03:15 | 24.32124 | 56.47269 | 22891 ft | 463 kts | 131° |
| 2026-05-08 03:15 | 24.30029 | 56.49950 | 23247 ft | 465 kts | 130° |
| 2026-05-08 03:15 | 24.28056 | 56.52776 | 23574 ft | 468 kts | 127° |
| 2026-05-08 03:15 | 24.26140 | 56.55668 | 23854 ft | 471 kts | 126° |
| 2026-05-08 03:16 | 24.24228 | 56.58594 | 24120 ft | 473 kts | 126° |
| 2026-05-08 03:16 | 24.22296 | 56.61534 | 24372 ft | 477 kts | 126° |
| 2026-05-08 03:16 | 24.20347 | 56.64480 | 24699 ft | 478 kts | 127° |
| 2026-05-08 03:16 | 24.18419 | 56.67389 | 24984 ft | 479 kts | 127° |
| 2026-05-08 03:17 | 24.16450 | 56.70352 | 25203 ft | 483 kts | 127° |
| 2026-05-08 03:17 | 24.14471 | 56.73332 | 25446 ft | 485 kts | 127° |
| 2026-05-08 03:17 | 24.12482 | 56.76326 | 25746 ft | 487 kts | 127° |
| 2026-05-08 03:17 | 24.10488 | 56.79321 | 26043 ft | 488 kts | 127° |
| 2026-05-08 03:18 | 24.08481 | 56.82328 | 26308 ft | 490 kts | 127° |
| 2026-05-08 03:18 | 24.06465 | 56.85350 | 26569 ft | 493 kts | 127° |
| 2026-05-08 03:18 | 24.04443 | 56.88381 | 26806 ft | 493 kts | 127° |
| 2026-05-08 03:18 | 24.02437 | 56.91380 | 26997 ft | 497 kts | 127° |
| 2026-05-08 03:19 | 24.00387 | 56.94430 | 27206 ft | 499 kts | 127° |
| 2026-05-08 03:19 | 23.98325 | 56.97492 | 27454 ft | 501 kts | 127° |
| 2026-05-08 03:19 | 23.96260 | 57.00559 | 27779 ft | 501 kts | 127° |
| 2026-05-08 03:19 | 23.94194 | 57.03630 | 28019 ft | 502 kts | 127° |
| 2026-05-08 03:20 | 23.92119 | 57.06715 | 28199 ft | 505 kts | 127° |
| 2026-05-08 03:20 | 23.90032 | 57.09816 | 28388 ft | 507 kts | 127° |
| 2026-05-08 03:20 | 23.87938 | 57.12926 | 28592 ft | 508 kts | 127° |
| 2026-05-08 03:20 | 23.85867 | 57.16000 | 28749 ft | 511 kts | 127° |
| 2026-05-08 03:21 | 23.83758 | 57.19135 | 28901 ft | 513 kts | 127° |
| 2026-05-08 03:21 | 23.81644 | 57.22279 | 29087 ft | 514 kts | 126° |
| 2026-05-08 03:21 | 23.79525 | 57.25429 | 29315 ft | 515 kts | 127° |
| 2026-05-08 03:21 | 23.77404 | 57.28579 | 29596 ft | 513 kts | 126° |
| 2026-05-08 03:22 | 23.75293 | 57.31716 | 29823 ft | 514 kts | 127° |
| 2026-05-08 03:22 | 23.73172 | 57.34859 | 30034 ft | 515 kts | 127° |
| 2026-05-08 03:22 | 23.71036 | 57.38000 | 30242 ft | 515 kts | 128° |
| 2026-05-08 03:22 | 23.68843 | 57.41080 | 30537 ft | 513 kts | 129° |
| 2026-05-08 03:23 | 23.66647 | 57.44080 | 30719 ft | 514 kts | 129° |
| 2026-05-08 03:23 | 23.62161 | 57.50160 | 30753 ft | 512 kts | 129° |
| 2026-05-08 03:24 | 23.57752 | 57.56218 | 30763 ft | 509 kts | 129° |
| 2026-05-08 03:24 | 23.53356 | 57.62270 | 30770 ft | 509 kts | 129° |
| 2026-05-08 03:25 | 23.48959 | 57.68313 | 30777 ft | 509 kts | 129° |
| 2026-05-08 03:25 | 23.44574 | 57.74312 | 30782 ft | 510 kts | 129° |
| 2026-05-08 03:26 | 23.40139 | 57.80352 | 30779 ft | 511 kts | 129° |
| 2026-05-08 03:26 | 23.35703 | 57.86411 | 30778 ft | 512 kts | 129° |
| 2026-05-08 03:27 | 23.31250 | 57.92466 | 30772 ft | 513 kts | 129° |
| 2026-05-08 03:27 | 23.26819 | 57.98477 | 30785 ft | 512 kts | 129° |
| 2026-05-08 03:28 | 23.22531 | 58.04660 | 30770 ft | 512 kts | 125° |
| 2026-05-08 03:28 | 23.18533 | 58.11058 | 30786 ft | 511 kts | 124° |
| 2026-05-08 03:29 | 23.14540 | 58.17453 | 30783 ft | 511 kts | 124° |
| 2026-05-08 03:29 | 23.10545 | 58.23783 | 30774 ft | 511 kts | 125° |
| 2026-05-08 03:30 | 23.04475 | 58.33311 | 30773 ft | 511 kts | 128° |
| 2026-05-08 03:30 | 22.99528 | 58.38830 | 30775 ft | 510 kts | 141° |
| 2026-05-08 03:31 | 22.94696 | 58.42473 | 30781 ft | 508 kts | 150° |
| 2026-05-08 03:32 | 22.84603 | 58.49008 | 30779 ft | 509 kts | 150° |
| 2026-05-08 03:32 | 22.79572 | 58.52312 | 30781 ft | 509 kts | 149° |
| 2026-05-08 03:33 | 22.73535 | 58.56311 | 30782 ft | 507 kts | 149° |
| 2026-05-08 03:33 | 22.67517 | 58.60292 | 30799 ft | 507 kts | 150° |
| 2026-05-08 03:34 | 22.61490 | 58.64268 | 30782 ft | 507 kts | 149° |
| 2026-05-08 03:34 | 22.55510 | 58.68215 | 30801 ft | 507 kts | 149° |
| 2026-05-08 03:35 | 22.49483 | 58.72188 | 30778 ft | 507 kts | 149° |
| 2026-05-08 03:35 | 22.43460 | 58.76152 | 30805 ft | 507 kts | 149° |
| 2026-05-08 03:36 | 22.37431 | 58.80115 | 30790 ft | 507 kts | 149° |
| 2026-05-08 03:36 | 22.31403 | 58.84078 | 30786 ft | 507 kts | 149° |
| 2026-05-08 03:37 | 22.25493 | 58.88157 | 30793 ft | 509 kts | 143° |
| 2026-05-08 03:37 | 22.20234 | 58.93266 | 30805 ft | 510 kts | 133° |
| 2026-05-08 03:38 | 22.15679 | 58.99125 | 30801 ft | 510 kts | 130° |
| 2026-05-08 03:38 | 22.11187 | 59.05045 | 30807 ft | 510 kts | 130° |
| 2026-05-08 03:39 | 22.06697 | 59.10899 | 30807 ft | 510 kts | 130° |
| 2026-05-08 03:39 | 22.02157 | 59.16775 | 30809 ft | 510 kts | 130° |
| 2026-05-08 03:40 | 21.97616 | 59.22632 | 30804 ft | 509 kts | 130° |
| 2026-05-08 03:40 | 21.93067 | 59.28488 | 30804 ft | 510 kts | 130° |
| 2026-05-08 03:41 | 21.88516 | 59.34354 | 30818 ft | 511 kts | 130° |
| 2026-05-08 03:41 | 21.83985 | 59.40186 | 30815 ft | 511 kts | 130° |
| 2026-05-08 03:42 | 21.79420 | 59.46049 | 30809 ft | 511 kts | 130° |
| 2026-05-08 03:42 | 21.74849 | 59.51923 | 30810 ft | 511 kts | 130° |
| 2026-05-08 03:43 | 21.70285 | 59.57784 | 30816 ft | 511 kts | 130° |
| 2026-05-08 03:43 | 21.65745 | 59.63599 | 30813 ft | 511 kts | 130° |
| 2026-05-08 03:44 | 21.61174 | 59.69434 | 30815 ft | 510 kts | 130° |
| 2026-05-08 03:44 | 21.56614 | 59.75275 | 30815 ft | 511 kts | 130° |
| 2026-05-08 03:45 | 21.52033 | 59.81108 | 30824 ft | 510 kts | 131° |
| 2026-05-08 03:45 | 21.47474 | 59.86887 | 30823 ft | 511 kts | 131° |
| 2026-05-08 03:46 | 21.42887 | 59.92708 | 30824 ft | 511 kts | 131° |
| 2026-05-08 03:46 | 21.38295 | 59.98529 | 30827 ft | 512 kts | 131° |
| 2026-05-08 03:47 | 21.33691 | 60.04354 | 30825 ft | 512 kts | 131° |
| 2026-05-08 03:47 | 21.29094 | 60.10170 | 30822 ft | 511 kts | 131° |
| 2026-05-08 03:48 | 21.24523 | 60.15940 | 30825 ft | 512 kts | 130° |
| 2026-05-08 03:48 | 21.19926 | 60.21758 | 30825 ft | 511 kts | 130° |
| 2026-05-08 03:49 | 21.15331 | 60.27534 | 30822 ft | 508 kts | 130° |
| 2026-05-08 03:49 | 21.10769 | 60.33320 | 30838 ft | 509 kts | 130° |
| 2026-05-08 03:50 | 21.06228 | 60.39072 | 30833 ft | 509 kts | 130° |
| 2026-05-08 03:50 | 21.01652 | 60.44849 | 30833 ft | 509 kts | 130° |
| 2026-05-08 03:51 | 20.97065 | 60.50629 | 30836 ft | 509 kts | 130° |
| 2026-05-08 03:51 | 20.92469 | 60.56394 | 30835 ft | 510 kts | 130° |
| 2026-05-08 03:52 | 20.87922 | 60.62129 | 30833 ft | 509 kts | 130° |
| 2026-05-08 03:52 | 20.83343 | 60.67889 | 30832 ft | 508 kts | 130° |
| 2026-05-08 03:53 | 20.78757 | 60.73636 | 30833 ft | 509 kts | 131° |
| 2026-05-08 03:53 | 20.74169 | 60.79384 | 30824 ft | 508 kts | 130° |
| 2026-05-08 03:54 | 20.69620 | 60.85092 | 30825 ft | 508 kts | 130° |
| 2026-05-08 03:54 | 20.65031 | 60.90833 | 30825 ft | 508 kts | 130° |
| 2026-05-08 03:55 | 20.60596 | 60.96693 | 30825 ft | 508 kts | 124° |
| 2026-05-08 03:55 | 20.56851 | 61.03082 | 30831 ft | 508 kts | 122° |
| 2026-05-08 03:56 | 20.53103 | 61.09413 | 30827 ft | 508 kts | 123° |
| 2026-05-08 03:56 | 20.49294 | 61.15778 | 30823 ft | 508 kts | 122° |
| 2026-05-08 03:57 | 20.45481 | 61.22138 | 30824 ft | 509 kts | 122° |
| 2026-05-08 03:57 | 20.41665 | 61.28503 | 30827 ft | 509 kts | 122° |
| 2026-05-08 03:58 | 20.37876 | 61.34823 | 30822 ft | 509 kts | 122° |
| 2026-05-08 03:58 | 20.34058 | 61.41176 | 30826 ft | 509 kts | 122° |
| 2026-05-08 03:59 | 20.30244 | 61.47524 | 30825 ft | 508 kts | 122° |
| 2026-05-08 03:59 | 20.26436 | 61.53870 | 30826 ft | 508 kts | 122° |
| 2026-05-08 04:00 | 20.22618 | 61.60200 | 30820 ft | 507 kts | 122° |
| 2026-05-08 04:00 | 20.18834 | 61.66472 | 30825 ft | 507 kts | 122° |
| 2026-05-08 04:01 | 20.15023 | 61.72789 | 30825 ft | 507 kts | 122° |
| 2026-05-08 04:01 | 20.11208 | 61.79102 | 30823 ft | 507 kts | 122° |
| 2026-05-08 04:02 | 20.07390 | 61.85409 | 30825 ft | 506 kts | 122° |
| 2026-05-08 04:02 | 20.03599 | 61.91669 | 30821 ft | 507 kts | 122° |
| 2026-05-08 04:03 | 19.99777 | 61.97978 | 30824 ft | 507 kts | 122° |
| 2026-05-08 04:03 | 19.94034 | 62.07434 | 30823 ft | 507 kts | 122° |
| 2026-05-08 04:04 | 19.90212 | 62.13716 | 30821 ft | 506 kts | 122° |
| 2026-05-08 04:04 | 19.86414 | 62.19958 | 30826 ft | 507 kts | 122° |
| 2026-05-08 04:05 | 19.82580 | 62.26251 | 30826 ft | 508 kts | 122° |
| 2026-05-08 04:05 | 19.78740 | 62.32552 | 30822 ft | 508 kts | 122° |
| 2026-05-08 04:06 | 19.74897 | 62.38848 | 30823 ft | 508 kts | 122° |
| 2026-05-08 04:06 | 19.71048 | 62.45142 | 30823 ft | 508 kts | 122° |
| 2026-05-08 04:07 | 19.67228 | 62.51385 | 30827 ft | 508 kts | 122° |
| 2026-05-08 04:07 | 19.63381 | 62.57661 | 30821 ft | 507 kts | 123° |
| 2026-05-08 04:08 | 19.59539 | 62.63931 | 30828 ft | 507 kts | 122° |
| 2026-05-08 04:08 | 19.55704 | 62.70197 | 30821 ft | 506 kts | 122° |
| 2026-05-08 04:09 | 19.51888 | 62.76415 | 30847 ft | 507 kts | 122° |
| 2026-05-08 04:09 | 19.48038 | 62.82669 | 30848 ft | 506 kts | 122° |
| 2026-05-08 04:10 | 19.44196 | 62.88911 | 30855 ft | 506 kts | 123° |
| 2026-05-08 04:10 | 19.40338 | 62.95172 | 30854 ft | 508 kts | 123° |
| 2026-05-08 04:11 | 19.36479 | 63.01430 | 30850 ft | 506 kts | 123° |
| 2026-05-08 04:11 | 19.32641 | 63.07639 | 30852 ft | 508 kts | 123° |
| 2026-05-08 04:12 | 19.28771 | 63.13903 | 30856 ft | 509 kts | 122° |
| 2026-05-08 04:12 | 19.24908 | 63.20169 | 30846 ft | 507 kts | 123° |
| 2026-05-08 04:13 | 19.21030 | 63.26406 | 30855 ft | 507 kts | 123° |
| 2026-05-08 04:13 | 19.17188 | 63.32603 | 30880 ft | 507 kts | 123° |
| 2026-05-08 04:14 | 19.13318 | 63.38837 | 30895 ft | 507 kts | 123° |
| 2026-05-08 04:14 | 19.09446 | 63.45071 | 30882 ft | 508 kts | 123° |
| 2026-05-08 04:15 | 19.05567 | 63.51313 | 30879 ft | 508 kts | 123° |
| 2026-05-08 04:15 | 19.01723 | 63.57501 | 30884 ft | 506 kts | 123° |
| 2026-05-08 04:16 | 18.97843 | 63.63708 | 30880 ft | 505 kts | 123° |
| 2026-05-08 04:16 | 18.93977 | 63.69898 | 30879 ft | 505 kts | 123° |
| 2026-05-08 04:17 | 18.90120 | 63.76083 | 30896 ft | 504 kts | 123° |
| 2026-05-08 04:17 | 18.86291 | 63.82223 | 30899 ft | 504 kts | 123° |
| 2026-05-08 04:18 | 18.82418 | 63.88422 | 30900 ft | 507 kts | 123° |
| 2026-05-08 04:18 | 18.78520 | 63.94642 | 30879 ft | 508 kts | 123° |
| 2026-05-08 04:19 | 18.74623 | 64.00863 | 30884 ft | 508 kts | 123° |
| 2026-05-08 04:19 | 18.70732 | 64.07079 | 30897 ft | 507 kts | 123° |
| 2026-05-08 04:20 | 18.66862 | 64.13241 | 30887 ft | 507 kts | 123° |
| 2026-05-08 04:20 | 18.62966 | 64.19439 | 30880 ft | 508 kts | 123° |
| 2026-05-08 04:21 | 18.59062 | 64.25641 | 30881 ft | 507 kts | 123° |
| 2026-05-08 04:21 | 18.55166 | 64.31835 | 30902 ft | 506 kts | 123° |
| 2026-05-08 04:22 | 18.51300 | 64.37970 | 30894 ft | 505 kts | 123° |
| 2026-05-08 04:22 | 18.47421 | 64.44131 | 30878 ft | 504 kts | 123° |
| 2026-05-08 04:23 | 18.43530 | 64.50281 | 30882 ft | 503 kts | 123° |
| 2026-05-08 04:23 | 18.39646 | 64.56419 | 30881 ft | 504 kts | 123° |
| 2026-05-08 04:24 | 18.35783 | 64.62536 | 30901 ft | 505 kts | 123° |
| 2026-05-08 04:24 | 18.31880 | 64.68693 | 30901 ft | 506 kts | 123° |
| 2026-05-08 04:25 | 18.27974 | 64.74861 | 30882 ft | 507 kts | 123° |
| 2026-05-08 04:25 | 18.24060 | 64.81032 | 30880 ft | 507 kts | 123° |
| 2026-05-08 04:26 | 18.20141 | 64.87207 | 30881 ft | 508 kts | 123° |
| 2026-05-08 04:26 | 18.16245 | 64.93327 | 30898 ft | 506 kts | 123° |
| 2026-05-08 04:27 | 18.12327 | 64.99488 | 30877 ft | 506 kts | 123° |
| 2026-05-08 04:27 | 18.08402 | 65.05646 | 30897 ft | 508 kts | 123° |
| 2026-05-08 04:28 | 18.04467 | 65.11824 | 30878 ft | 509 kts | 123° |
| 2026-05-08 04:28 | 18.00555 | 65.17963 | 30876 ft | 509 kts | 123° |
| 2026-05-08 04:29 | 17.96614 | 65.24132 | 30899 ft | 507 kts | 124° |
| 2026-05-08 04:29 | 17.92687 | 65.30275 | 30879 ft | 505 kts | 124° |
| 2026-05-08 04:30 | 17.88778 | 65.36382 | 30883 ft | 503 kts | 124° |
| 2026-05-08 04:30 | 17.84905 | 65.42430 | 30878 ft | 503 kts | 124° |
| 2026-05-08 04:31 | 17.80997 | 65.48524 | 30882 ft | 504 kts | 124° |
| 2026-05-08 04:31 | 17.77076 | 65.54631 | 30895 ft | 504 kts | 124° |
| 2026-05-08 04:32 | 17.73160 | 65.60742 | 30897 ft | 505 kts | 124° |
| 2026-05-08 04:32 | 17.69244 | 65.66845 | 30879 ft | 505 kts | 124° |
| 2026-05-08 04:33 | 17.65334 | 65.72896 | 30882 ft | 505 kts | 124° |
| 2026-05-08 04:33 | 17.61405 | 65.79010 | 30880 ft | 506 kts | 123° |
| 2026-05-08 04:34 | 17.57552 | 65.85190 | 30899 ft | 506 kts | 123° |
| 2026-05-08 04:34 | 17.53756 | 65.91405 | 30897 ft | 507 kts | 122° |
| 2026-05-08 04:35 | 17.49942 | 65.97610 | 30889 ft | 506 kts | 123° |
| 2026-05-08 04:35 | 17.46145 | 66.03768 | 30879 ft | 506 kts | 123° |
| 2026-05-08 04:36 | 17.42309 | 66.09960 | 30882 ft | 507 kts | 123° |
| 2026-05-08 04:36 | 17.38478 | 66.16151 | 30896 ft | 506 kts | 123° |
| 2026-05-08 04:37 | 17.34653 | 66.22326 | 30882 ft | 505 kts | 123° |
| 2026-05-08 04:37 | 17.30859 | 66.28455 | 30876 ft | 505 kts | 123° |
| 2026-05-08 04:38 | 17.27025 | 66.34627 | 30902 ft | 506 kts | 123° |
| 2026-05-08 04:38 | 17.23186 | 66.40800 | 30900 ft | 506 kts | 123° |
| 2026-05-08 04:39 | 17.19348 | 66.46975 | 30879 ft | 506 kts | 123° |
| 2026-05-08 04:39 | 17.15536 | 66.53108 | 30887 ft | 506 kts | 123° |
| 2026-05-08 04:40 | 17.11697 | 66.59272 | 30881 ft | 505 kts | 123° |
| 2026-05-08 04:40 | 17.07862 | 66.65418 | 30899 ft | 504 kts | 123° |
| 2026-05-08 04:41 | 17.04033 | 66.71557 | 30882 ft | 504 kts | 123° |
| 2026-05-08 04:41 | 17.00230 | 66.77643 | 30898 ft | 504 kts | 123° |
| 2026-05-08 04:42 | 16.96398 | 66.83777 | 30880 ft | 505 kts | 123° |
| 2026-05-08 04:42 | 16.92555 | 66.89923 | 30897 ft | 505 kts | 123° |
| 2026-05-08 04:43 | 16.88730 | 66.96016 | 30895 ft | 505 kts | 123° |
| 2026-05-08 04:43 | 16.84888 | 67.02146 | 30880 ft | 505 kts | 123° |
| 2026-05-08 04:44 | 16.81049 | 67.08275 | 30898 ft | 504 kts | 123° |
| 2026-05-08 04:44 | 16.77211 | 67.14392 | 30879 ft | 504 kts | 123° |
| 2026-05-08 04:45 | 16.73366 | 67.20506 | 30861 ft | 504 kts | 123° |
| 2026-05-08 04:45 | 16.69543 | 67.26579 | 30863 ft | 504 kts | 123° |
| 2026-05-08 04:46 | 16.65689 | 67.32700 | 30864 ft | 505 kts | 123° |
| 2026-05-08 04:46 | 16.61836 | 67.38826 | 30863 ft | 505 kts | 123° |
| 2026-05-08 04:47 | 16.57981 | 67.44941 | 30860 ft | 505 kts | 123° |
| 2026-05-08 04:47 | 16.54150 | 67.51012 | 30855 ft | 504 kts | 123° |
| 2026-05-08 04:48 | 16.50294 | 67.57110 | 30860 ft | 504 kts | 123° |
| 2026-05-08 04:48 | 16.46442 | 67.63200 | 30860 ft | 503 kts | 123° |
| 2026-05-08 04:49 | 16.42594 | 67.69285 | 30865 ft | 503 kts | 123° |
| 2026-05-08 04:49 | 16.38742 | 67.75369 | 30859 ft | 503 kts | 123° |
| 2026-05-08 04:50 | 16.34913 | 67.81416 | 30863 ft | 504 kts | 124° |
| 2026-05-08 04:50 | 16.31053 | 67.87497 | 30863 ft | 504 kts | 123° |
| 2026-05-08 04:51 | 16.27185 | 67.93588 | 30860 ft | 504 kts | 123° |
| 2026-05-08 04:51 | 16.23333 | 67.99685 | 30856 ft | 504 kts | 123° |
| 2026-05-08 04:52 | 16.19527 | 68.05738 | 30858 ft | 503 kts | 123° |
| 2026-05-08 04:52 | 16.15692 | 68.11830 | 30866 ft | 503 kts | 123° |
| 2026-05-08 04:53 | 16.11860 | 68.17927 | 30862 ft | 504 kts | 123° |
| 2026-05-08 04:53 | 16.08023 | 68.24023 | 30864 ft | 503 kts | 123° |
| 2026-05-08 04:54 | 16.04217 | 68.30073 | 30857 ft | 504 kts | 123° |
| 2026-05-08 04:54 | 16.00365 | 68.36148 | 30856 ft | 504 kts | 123° |
| 2026-05-08 04:55 | 15.96512 | 68.42225 | 30860 ft | 503 kts | 123° |
| 2026-05-08 04:55 | 15.92659 | 68.48314 | 30864 ft | 505 kts | 123° |
| 2026-05-08 04:56 | 15.88828 | 68.54369 | 30868 ft | 505 kts | 123° |
| 2026-05-08 04:56 | 15.84970 | 68.60467 | 30861 ft | 505 kts | 123° |
| 2026-05-08 04:57 | 15.81112 | 68.66557 | 30862 ft | 504 kts | 123° |
| 2026-05-08 04:57 | 15.77406 | 68.72681 | 30863 ft | 500 kts | 123° |
| 2026-05-08 04:58 | 15.73508 | 68.78661 | 30865 ft | 501 kts | 124° |
| 2026-05-08 04:58 | 15.69632 | 68.84624 | 30875 ft | 502 kts | 124° |
| 2026-05-08 04:59 | 15.65758 | 68.90675 | 30874 ft | 505 kts | 123° |
| 2026-05-08 04:59 | 15.61889 | 68.96766 | 30877 ft | 506 kts | 123° |
| 2026-05-08 05:00 | 15.58008 | 69.02864 | 30868 ft | 506 kts | 123° |
| 2026-05-08 05:00 | 15.54137 | 69.08941 | 30868 ft | 505 kts | 123° |
| 2026-05-08 05:01 | 15.50284 | 69.14970 | 30873 ft | 505 kts | 123° |
| 2026-05-08 05:01 | 15.46390 | 69.21034 | 30867 ft | 505 kts | 124° |
| 2026-05-08 05:02 | 15.42506 | 69.27103 | 30865 ft | 505 kts | 123° |
| 2026-05-08 05:02 | 15.38637 | 69.33185 | 30876 ft | 506 kts | 123° |
| 2026-05-08 05:03 | 15.34751 | 69.39260 | 30880 ft | 505 kts | 123° |
| 2026-05-08 05:03 | 15.30891 | 69.45279 | 30884 ft | 505 kts | 123° |
| 2026-05-08 05:04 | 15.27013 | 69.51328 | 30881 ft | 504 kts | 123° |
| 2026-05-08 05:04 | 15.23134 | 69.57366 | 30885 ft | 504 kts | 123° |
| 2026-05-08 05:05 | 15.19248 | 69.63415 | 30886 ft | 504 kts | 123° |
| 2026-05-08 05:05 | 15.15384 | 69.69423 | 30884 ft | 504 kts | 123° |
| 2026-05-08 05:06 | 15.11502 | 69.75470 | 30875 ft | 504 kts | 124° |
| 2026-05-08 05:06 | 15.07640 | 69.81514 | 30883 ft | 503 kts | 123° |
| 2026-05-08 05:07 | 15.03803 | 69.87568 | 30881 ft | 503 kts | 123° |
| 2026-05-08 05:07 | 14.99992 | 69.93582 | 30867 ft | 503 kts | 123° |
| 2026-05-08 05:08 | 14.96152 | 69.99636 | 30875 ft | 503 kts | 123° |
| 2026-05-08 05:08 | 14.92299 | 70.05678 | 30872 ft | 503 kts | 123° |
| 2026-05-08 05:09 | 14.88441 | 70.11724 | 30868 ft | 504 kts | 123° |
| 2026-05-08 05:09 | 14.84610 | 70.17732 | 30875 ft | 504 kts | 123° |
| 2026-05-08 05:10 | 14.78833 | 70.26799 | 30865 ft | 504 kts | 123° |
| 2026-05-08 05:11 | 14.74970 | 70.32835 | 30867 ft | 503 kts | 123° |
| 2026-05-08 05:11 | 14.71115 | 70.38861 | 30870 ft | 502 kts | 123° |
| 2026-05-08 05:12 | 14.67306 | 70.44842 | 30875 ft | 502 kts | 123° |
| 2026-05-08 05:12 | 14.63443 | 70.50862 | 30869 ft | 503 kts | 123° |
| 2026-05-08 05:13 | 14.59581 | 70.56878 | 30872 ft | 502 kts | 123° |
| 2026-05-08 05:13 | 14.55723 | 70.62892 | 30874 ft | 503 kts | 123° |
| 2026-05-08 05:14 | 14.51865 | 70.68907 | 30865 ft | 502 kts | 123° |
| 2026-05-08 05:14 | 14.48039 | 70.74881 | 30879 ft | 503 kts | 124° |
| 2026-05-08 05:15 | 14.44178 | 70.80893 | 30871 ft | 502 kts | 123° |
| 2026-05-08 05:15 | 14.40308 | 70.86898 | 30868 ft | 503 kts | 123° |
| 2026-05-08 05:16 | 14.36443 | 70.92911 | 30870 ft | 504 kts | 123° |
| 2026-05-08 05:16 | 14.32613 | 70.98901 | 30872 ft | 505 kts | 123° |
| 2026-05-08 05:17 | 14.28783 | 71.04964 | 30877 ft | 505 kts | 123° |
| 2026-05-08 05:17 | 14.24968 | 71.11034 | 30873 ft | 505 kts | 123° |
| 2026-05-08 05:18 | 14.21137 | 71.17107 | 30873 ft | 505 kts | 123° |
| 2026-05-08 05:18 | 14.17328 | 71.23122 | 30863 ft | 503 kts | 123° |
| 2026-05-08 05:19 | 14.13500 | 71.29155 | 30864 ft | 503 kts | 123° |
| 2026-05-08 05:19 | 14.09677 | 71.35186 | 30868 ft | 502 kts | 123° |
| 2026-05-08 05:20 | 14.05855 | 71.41212 | 30867 ft | 503 kts | 123° |
| 2026-05-08 05:20 | 14.02049 | 71.47208 | 30868 ft | 504 kts | 123° |
| 2026-05-08 05:21 | 13.98217 | 71.53247 | 30871 ft | 504 kts | 123° |
| 2026-05-08 05:21 | 13.94380 | 71.59288 | 30867 ft | 504 kts | 123° |
| 2026-05-08 05:22 | 13.90543 | 71.65322 | 30861 ft | 504 kts | 123° |
| 2026-05-08 05:22 | 13.86709 | 71.71353 | 30875 ft | 503 kts | 123° |
| 2026-05-08 05:23 | 13.82900 | 71.77334 | 30878 ft | 503 kts | 123° |
| 2026-05-08 05:23 | 13.79054 | 71.83353 | 30865 ft | 503 kts | 123° |
| 2026-05-08 05:24 | 13.75210 | 71.89378 | 30864 ft | 503 kts | 123° |
| 2026-05-08 05:24 | 13.71398 | 71.95366 | 30871 ft | 503 kts | 123° |
| 2026-05-08 05:25 | 13.67457 | 72.01322 | 30872 ft | 504 kts | 128° |
| 2026-05-08 05:25 | 13.63056 | 72.06923 | 30878 ft | 504 kts | 129° |
| 2026-05-08 05:26 | 13.58593 | 72.12489 | 30874 ft | 505 kts | 129° |
| 2026-05-08 05:26 | 13.54144 | 72.18067 | 30869 ft | 505 kts | 129° |
| 2026-05-08 05:27 | 13.49740 | 72.23618 | 30870 ft | 504 kts | 129° |
| 2026-05-08 05:27 | 13.45311 | 72.29216 | 30875 ft | 505 kts | 129° |
| 2026-05-08 05:28 | 13.40888 | 72.34810 | 30874 ft | 503 kts | 129° |
| 2026-05-08 05:28 | 13.36471 | 72.40387 | 30864 ft | 503 kts | 129° |
| 2026-05-08 05:29 | 13.32083 | 72.45922 | 30875 ft | 503 kts | 129° |
| 2026-05-08 05:29 | 13.27674 | 72.51474 | 30866 ft | 502 kts | 129° |
| 2026-05-08 05:30 | 13.23282 | 72.57036 | 30859 ft | 501 kts | 129° |
| 2026-05-08 05:30 | 13.18868 | 72.62584 | 30866 ft | 502 kts | 129° |
| 2026-05-08 05:31 | 13.14452 | 72.68126 | 30870 ft | 502 kts | 129° |
| 2026-05-08 05:31 | 13.10064 | 72.73641 | 30874 ft | 503 kts | 129° |
| 2026-05-08 05:32 | 13.05628 | 72.79207 | 30880 ft | 504 kts | 129° |
| 2026-05-08 05:32 | 13.01192 | 72.84777 | 30872 ft | 504 kts | 129° |
| 2026-05-08 05:33 | 12.96760 | 72.90345 | 30870 ft | 503 kts | 129° |
| 2026-05-08 05:33 | 12.92362 | 72.95853 | 30866 ft | 503 kts | 129° |
| 2026-05-08 05:34 | 12.87932 | 73.01399 | 30866 ft | 502 kts | 129° |
| 2026-05-08 05:34 | 12.83514 | 73.06939 | 30871 ft | 502 kts | 129° |
| 2026-05-08 05:35 | 12.79092 | 73.12478 | 30864 ft | 502 kts | 129° |
| 2026-05-08 05:35 | 12.74664 | 73.18015 | 30858 ft | 502 kts | 129° |
| 2026-05-08 05:36 | 12.70263 | 73.23499 | 30861 ft | 502 kts | 129° |
| 2026-05-08 05:36 | 12.65851 | 73.29022 | 30862 ft | 501 kts | 129° |
| 2026-05-08 05:37 | 12.61440 | 73.34536 | 30860 ft | 500 kts | 129° |
| 2026-05-08 05:37 | 12.57055 | 73.40007 | 30858 ft | 501 kts | 129° |
| 2026-05-08 05:38 | 12.52630 | 73.45523 | 30865 ft | 502 kts | 129° |
| 2026-05-08 05:38 | 12.48204 | 73.51041 | 30859 ft | 502 kts | 129° |
| 2026-05-08 05:39 | 12.43763 | 73.56568 | 30869 ft | 503 kts | 130° |
| 2026-05-08 05:39 | 12.39357 | 73.62055 | 30861 ft | 502 kts | 130° |
| 2026-05-08 05:40 | 12.34930 | 73.67554 | 30864 ft | 499 kts | 130° |
| 2026-05-08 05:40 | 12.30520 | 73.73042 | 30860 ft | 499 kts | 130° |
| 2026-05-08 05:41 | 12.26117 | 73.78510 | 30861 ft | 498 kts | 130° |
| 2026-05-08 05:41 | 12.21714 | 73.83973 | 30857 ft | 498 kts | 130° |
| 2026-05-08 05:42 | 12.17347 | 73.89409 | 30869 ft | 499 kts | 130° |
| 2026-05-08 05:42 | 12.12926 | 73.94882 | 30864 ft | 499 kts | 130° |
| 2026-05-08 05:43 | 12.08512 | 74.00361 | 30858 ft | 499 kts | 130° |
| 2026-05-08 05:43 | 12.04095 | 74.05838 | 30867 ft | 500 kts | 130° |
| 2026-05-08 05:44 | 11.99696 | 74.11287 | 30858 ft | 501 kts | 130° |
| 2026-05-08 05:44 | 11.95264 | 74.16786 | 30856 ft | 501 kts | 130° |
| 2026-05-08 05:45 | 11.90829 | 74.22263 | 30856 ft | 499 kts | 130° |
| 2026-05-08 05:45 | 11.86433 | 74.27722 | 30856 ft | 496 kts | 130° |
| 2026-05-08 05:46 | 11.82050 | 74.33124 | 30863 ft | 497 kts | 130° |
| 2026-05-08 05:46 | 11.77631 | 74.38568 | 30861 ft | 499 kts | 130° |
| 2026-05-08 05:47 | 11.73204 | 74.44027 | 30862 ft | 500 kts | 130° |
| 2026-05-08 05:47 | 11.68774 | 74.49505 | 30858 ft | 500 kts | 130° |
| 2026-05-08 05:48 | 11.64358 | 74.54930 | 30859 ft | 500 kts | 130° |
| 2026-05-08 05:48 | 11.59920 | 74.60399 | 30862 ft | 501 kts | 130° |
| 2026-05-08 05:49 | 11.55469 | 74.65886 | 30866 ft | 503 kts | 130° |
| 2026-05-08 05:49 | 11.51015 | 74.71375 | 30864 ft | 502 kts | 130° |
| 2026-05-08 05:50 | 11.46593 | 74.76815 | 30858 ft | 502 kts | 129° |
| 2026-05-08 05:50 | 11.42151 | 74.82287 | 30856 ft | 501 kts | 130° |
| 2026-05-08 05:51 | 11.37711 | 74.87738 | 30856 ft | 500 kts | 130° |
| 2026-05-08 05:51 | 11.33276 | 74.93184 | 30860 ft | 499 kts | 130° |
| 2026-05-08 05:52 | 11.28838 | 74.98631 | 30864 ft | 500 kts | 130° |
| 2026-05-08 05:52 | 11.24426 | 75.04029 | 30854 ft | 499 kts | 130° |
| 2026-05-08 05:53 | 11.19992 | 75.09467 | 30863 ft | 500 kts | 130° |
| 2026-05-08 05:53 | 11.15550 | 75.14916 | 30870 ft | 500 kts | 130° |
| 2026-05-08 05:54 | 11.11101 | 75.20370 | 30856 ft | 501 kts | 130° |
| 2026-05-08 05:54 | 11.06678 | 75.25784 | 30864 ft | 500 kts | 130° |
| 2026-05-08 05:55 | 11.02236 | 75.31219 | 30854 ft | 500 kts | 130° |
| 2026-05-08 05:55 | 10.97794 | 75.36658 | 30854 ft | 501 kts | 130° |
| 2026-05-08 05:56 | 10.93332 | 75.42117 | 30859 ft | 502 kts | 130° |
| 2026-05-08 05:56 | 10.88858 | 75.47581 | 30854 ft | 503 kts | 130° |
| 2026-05-08 05:57 | 10.84411 | 75.53005 | 30868 ft | 501 kts | 130° |
| 2026-05-08 05:57 | 10.79953 | 75.58448 | 30858 ft | 500 kts | 130° |
| 2026-05-08 05:58 | 10.75495 | 75.63878 | 30868 ft | 500 kts | 130° |
| 2026-05-08 05:58 | 10.71041 | 75.69310 | 30864 ft | 500 kts | 129° |
| 2026-05-08 05:59 | 10.66621 | 75.74702 | 30872 ft | 500 kts | 130° |
| 2026-05-08 05:59 | 10.62160 | 75.80135 | 30862 ft | 500 kts | 129° |
| 2026-05-08 06:00 | 10.57711 | 75.85565 | 30864 ft | 500 kts | 129° |
| 2026-05-08 06:00 | 10.53251 | 75.90984 | 30857 ft | 500 kts | 129° |
| 2026-05-08 06:01 | 10.48821 | 75.96368 | 30862 ft | 500 kts | 129° |
| 2026-05-08 06:01 | 10.44363 | 76.01778 | 30876 ft | 499 kts | 129° |
| 2026-05-08 06:02 | 10.39908 | 76.07195 | 30870 ft | 499 kts | 130° |
| 2026-05-08 06:02 | 10.35466 | 76.12594 | 30861 ft | 497 kts | 129° |
| 2026-05-08 06:03 | 10.31071 | 76.17927 | 30862 ft | 495 kts | 130° |
| 2026-05-08 06:03 | 10.26659 | 76.23281 | 30857 ft | 494 kts | 129° |
| 2026-05-08 06:04 | 10.22256 | 76.28633 | 30866 ft | 494 kts | 130° |
| 2026-05-08 06:04 | 10.17833 | 76.33986 | 30866 ft | 495 kts | 130° |
| 2026-05-08 06:05 | 10.13412 | 76.39337 | 30864 ft | 496 kts | 130° |
| 2026-05-08 06:05 | 10.08975 | 76.44671 | 30846 ft | 498 kts | 130° |
| 2026-05-08 06:06 | 10.04496 | 76.50038 | 30856 ft | 498 kts | 130° |
| 2026-05-08 06:06 | 10.00030 | 76.55378 | 30877 ft | 495 kts | 131° |
| 2026-05-08 06:07 | 9.95602 | 76.60716 | 30845 ft | 494 kts | 130° |
| 2026-05-08 06:07 | 9.91214 | 76.66009 | 30860 ft | 493 kts | 130° |
| 2026-05-08 06:08 | 9.86773 | 76.71328 | 30873 ft | 494 kts | 130° |
| 2026-05-08 06:08 | 9.82331 | 76.76655 | 30877 ft | 495 kts | 130° |
| 2026-05-08 06:09 | 9.77886 | 76.81989 | 30870 ft | 495 kts | 130° |
| 2026-05-08 06:09 | 9.73463 | 76.87285 | 30864 ft | 496 kts | 130° |
| 2026-05-08 06:10 | 9.69008 | 76.92621 | 30858 ft | 495 kts | 130° |
| 2026-05-08 06:10 | 9.64554 | 76.97956 | 30862 ft | 495 kts | 130° |
| 2026-05-08 06:11 | 9.60105 | 77.03279 | 30862 ft | 494 kts | 130° |
| 2026-05-08 06:11 | 9.55693 | 77.08553 | 30854 ft | 493 kts | 130° |
| 2026-05-08 06:12 | 9.51268 | 77.13850 | 30859 ft | 492 kts | 130° |
| 2026-05-08 06:12 | 9.46831 | 77.19143 | 30865 ft | 492 kts | 130° |
| 2026-05-08 06:13 | 9.42403 | 77.24419 | 30865 ft | 492 kts | 130° |
| 2026-05-08 06:13 | 9.38018 | 77.29674 | 30870 ft | 492 kts | 130° |
| 2026-05-08 06:14 | 9.33592 | 77.34965 | 30863 ft | 494 kts | 130° |
| 2026-05-08 06:14 | 9.29145 | 77.40273 | 30860 ft | 495 kts | 130° |
| 2026-05-08 06:15 | 9.25438 | 77.44685 | 30862 ft | 495 kts | 130° |
| 2026-05-08 06:15 | 9.20262 | 77.50857 | 30859 ft | 494 kts | 130° |
| 2026-05-08 06:16 | 9.15812 | 77.56163 | 30865 ft | 494 kts | 130° |
| 2026-05-08 06:16 | 9.12119 | 77.60569 | 30862 ft | 493 kts | 130° |
| 2026-05-08 06:17 | 9.05461 | 77.68493 | 30857 ft | 492 kts | 130° |
| 2026-05-08 06:17 | 9.00317 | 77.74623 | 30866 ft | 492 kts | 130° |
| 2026-05-08 06:18 | 8.96618 | 77.79039 | 30864 ft | 491 kts | 130° |
| 2026-05-08 06:18 | 8.92219 | 77.84272 | 30858 ft | 492 kts | 130° |
| 2026-05-08 06:19 | 8.87789 | 77.89543 | 30861 ft | 491 kts | 130° |
| 2026-05-08 06:19 | 8.83361 | 77.94810 | 30855 ft | 492 kts | 130° |
| 2026-05-08 06:20 | 8.78936 | 78.00089 | 30866 ft | 492 kts | 130° |
| 2026-05-08 06:20 | 8.74526 | 78.05327 | 30869 ft | 492 kts | 130° |
| 2026-05-08 06:21 | 8.70083 | 78.10593 | 30860 ft | 492 kts | 130° |
| 2026-05-08 06:21 | 8.65648 | 78.15852 | 30857 ft | 491 kts | 130° |
| 2026-05-08 06:22 | 8.61254 | 78.21078 | 30861 ft | 491 kts | 130° |
| 2026-05-08 06:22 | 8.56820 | 78.26329 | 30853 ft | 492 kts | 130° |
| 2026-05-08 06:23 | 8.52387 | 78.31589 | 30850 ft | 491 kts | 130° |
| 2026-05-08 06:23 | 8.47963 | 78.36834 | 30854 ft | 491 kts | 130° |
| 2026-05-08 06:24 | 8.43535 | 78.42093 | 30851 ft | 491 kts | 130° |
| 2026-05-08 06:24 | 8.39136 | 78.47302 | 30856 ft | 491 kts | 130° |
| 2026-05-08 06:25 | 8.34704 | 78.52550 | 30849 ft | 491 kts | 130° |
| 2026-05-08 06:25 | 8.30271 | 78.57797 | 30853 ft | 490 kts | 130° |
| 2026-05-08 06:26 | 8.25816 | 78.63007 | 30848 ft | 490 kts | 131° |
| 2026-05-08 06:26 | 8.21291 | 78.68077 | 30852 ft | 490 kts | 132° |
| 2026-05-08 06:27 | 8.16704 | 78.73176 | 30861 ft | 492 kts | 132° |
| 2026-05-08 06:27 | 8.12120 | 78.78302 | 30848 ft | 493 kts | 132° |
| 2026-05-08 06:28 | 8.07532 | 78.83450 | 30843 ft | 493 kts | 132° |
| 2026-05-08 06:28 | 8.02978 | 78.88568 | 30844 ft | 494 kts | 132° |
| 2026-05-08 06:29 | 7.98390 | 78.93716 | 30844 ft | 493 kts | 132° |
| 2026-05-08 06:29 | 7.93814 | 78.98848 | 30839 ft | 491 kts | 131° |
| 2026-05-08 06:30 | 7.89249 | 79.03968 | 30841 ft | 490 kts | 131° |
| 2026-05-08 06:30 | 7.84725 | 79.09045 | 30842 ft | 490 kts | 131° |
| 2026-05-08 06:31 | 7.80169 | 79.14147 | 30843 ft | 489 kts | 131° |
| 2026-05-08 06:31 | 7.75613 | 79.19249 | 30843 ft | 490 kts | 131° |
| 2026-05-08 06:32 | 7.71056 | 79.24361 | 30836 ft | 490 kts | 131° |
| 2026-05-08 06:32 | 7.66550 | 79.29471 | 30836 ft | 491 kts | 131° |
| 2026-05-08 06:33 | 7.62032 | 79.34635 | 30833 ft | 492 kts | 131° |
| 2026-05-08 06:33 | 7.57499 | 79.39807 | 30836 ft | 493 kts | 131° |
| 2026-05-08 06:34 | 7.52957 | 79.44977 | 30830 ft | 492 kts | 131° |
| 2026-05-08 06:34 | 7.48439 | 79.50122 | 30840 ft | 494 kts | 131° |
| 2026-05-08 06:35 | 7.43892 | 79.55305 | 30832 ft | 493 kts | 131° |
| 2026-05-08 06:35 | 7.39338 | 79.60474 | 30830 ft | 493 kts | 131° |
| 2026-05-08 06:36 | 7.34801 | 79.65645 | 30828 ft | 491 kts | 131° |
| 2026-05-08 06:36 | 7.30310 | 79.70743 | 30835 ft | 488 kts | 131° |
| 2026-05-08 06:37 | 7.25814 | 79.75859 | 30819 ft | 488 kts | 131° |
| 2026-05-08 06:37 | 7.21306 | 79.80985 | 30808 ft | 490 kts | 131° |
| 2026-05-08 06:38 | 7.16784 | 79.86120 | 30806 ft | 490 kts | 131° |
| 2026-05-08 06:38 | 7.11988 | 79.90931 | 30816 ft | 491 kts | 136° |
| 2026-05-08 06:39 | 7.07020 | 79.95640 | 30798 ft | 490 kts | 136° |
| 2026-05-08 06:39 | 7.02069 | 80.00365 | 30810 ft | 490 kts | 136° |
| 2026-05-08 06:40 | 6.97134 | 80.05091 | 30818 ft | 489 kts | 136° |
| 2026-05-08 06:40 | 6.92250 | 80.09784 | 30820 ft | 489 kts | 135° |
| 2026-05-08 06:41 | 6.87334 | 80.14513 | 30822 ft | 488 kts | 136° |
| 2026-05-08 06:41 | 6.82428 | 80.19216 | 30824 ft | 487 kts | 136° |
| 2026-05-08 06:42 | 6.77520 | 80.23925 | 30832 ft | 487 kts | 136° |
| 2026-05-08 06:42 | 6.72619 | 80.28628 | 30832 ft | 487 kts | 135° |
| 2026-05-08 06:43 | 6.67745 | 80.33291 | 30838 ft | 487 kts | 135° |
| 2026-05-08 06:43 | 6.62841 | 80.37990 | 30830 ft | 486 kts | 135° |
| 2026-05-08 06:44 | 6.57954 | 80.42670 | 30827 ft | 484 kts | 135° |
| 2026-05-08 06:44 | 6.53078 | 80.47343 | 30832 ft | 484 kts | 135° |
| 2026-05-08 06:45 | 6.48200 | 80.52012 | 30837 ft | 485 kts | 135° |
| 2026-05-08 06:45 | 6.43338 | 80.56660 | 30837 ft | 487 kts | 135° |
| 2026-05-08 06:46 | 6.38270 | 80.61181 | 30836 ft | 487 kts | 141° |
| 2026-05-08 06:46 | 6.32883 | 80.65311 | 30827 ft | 487 kts | 142° |
| 2026-05-08 06:47 | 6.27498 | 80.69422 | 30834 ft | 486 kts | 141° |
| 2026-05-08 06:47 | 6.22182 | 80.73542 | 30832 ft | 486 kts | 141° |
| 2026-05-08 06:48 | 6.16842 | 80.77699 | 30833 ft | 485 kts | 141° |
| 2026-05-08 06:48 | 6.11498 | 80.81852 | 30831 ft | 485 kts | 141° |
| 2026-05-08 06:49 | 6.06164 | 80.85995 | 30837 ft | 484 kts | 141° |
| 2026-05-08 06:49 | 6.01027 | 80.90293 | 30824 ft | 484 kts | 138° |
| 2026-05-08 06:50 | 5.95977 | 80.94759 | 30838 ft | 483 kts | 137° |
| 2026-05-08 06:50 | 5.90924 | 80.99223 | 30838 ft | 484 kts | 138° |
| 2026-05-08 06:51 | 5.85865 | 81.03673 | 30832 ft | 484 kts | 138° |
| 2026-05-08 06:51 | 5.80839 | 81.08089 | 30830 ft | 483 kts | 138° |
| 2026-05-08 06:52 | 5.75772 | 81.12534 | 30838 ft | 484 kts | 138° |
| 2026-05-08 06:52 | 5.70695 | 81.16981 | 30837 ft | 485 kts | 138° |
| 2026-05-08 06:53 | 5.65605 | 81.21432 | 30834 ft | 485 kts | 138° |
| 2026-05-08 06:53 | 5.60558 | 81.25849 | 30831 ft | 484 kts | 138° |
| 2026-05-08 06:54 | 5.55488 | 81.30282 | 30833 ft | 483 kts | 138° |
| 2026-05-08 06:54 | 5.50428 | 81.34723 | 30831 ft | 483 kts | 138° |
| 2026-05-08 06:55 | 5.45364 | 81.39161 | 30831 ft | 483 kts | 138° |
| 2026-05-08 06:55 | 5.40294 | 81.43589 | 30834 ft | 484 kts | 138° |
| 2026-05-08 06:56 | 5.35252 | 81.48003 | 30835 ft | 483 kts | 138° |
| 2026-05-08 06:56 | 5.30186 | 81.52439 | 30837 ft | 484 kts | 138° |
| 2026-05-08 06:57 | 5.25102 | 81.56876 | 30836 ft | 485 kts | 138° |
| 2026-05-08 06:57 | 5.20004 | 81.61326 | 30836 ft | 486 kts | 138° |
| 2026-05-08 06:58 | 5.14942 | 81.65759 | 30832 ft | 485 kts | 138° |
| 2026-05-08 06:58 | 5.09867 | 81.70195 | 30829 ft | 484 kts | 138° |
| 2026-05-08 06:59 | 5.04795 | 81.74634 | 30833 ft | 484 kts | 138° |
| 2026-05-08 06:59 | 4.99706 | 81.79070 | 30835 ft | 484 kts | 138° |
| 2026-05-08 07:00 | 4.94652 | 81.83475 | 30832 ft | 485 kts | 138° |
| 2026-05-08 07:00 | 4.89564 | 81.87929 | 30837 ft | 486 kts | 138° |
| 2026-05-08 07:01 | 4.84469 | 81.92376 | 30833 ft | 486 kts | 138° |
| 2026-05-08 07:01 | 4.79366 | 81.96824 | 30833 ft | 486 kts | 138° |
| 2026-05-08 07:02 | 4.74265 | 82.01271 | 30834 ft | 486 kts | 138° |
| 2026-05-08 07:02 | 4.69198 | 82.05697 | 30832 ft | 486 kts | 138° |
| 2026-05-08 07:03 | 4.64100 | 82.10151 | 30830 ft | 486 kts | 138° |
| 2026-05-08 07:03 | 4.59001 | 82.14592 | 30838 ft | 486 kts | 138° |
| 2026-05-08 07:04 | 4.53895 | 82.19044 | 30832 ft | 486 kts | 138° |
| 2026-05-08 07:04 | 4.48827 | 82.23462 | 30836 ft | 486 kts | 138° |
| 2026-05-08 07:05 | 4.43727 | 82.27911 | 30830 ft | 486 kts | 138° |
| 2026-05-08 07:05 | 4.38614 | 82.32365 | 30839 ft | 487 kts | 138° |
| 2026-05-08 07:06 | 4.33514 | 82.36808 | 30837 ft | 486 kts | 138° |
| 2026-05-08 07:06 | 4.28448 | 82.41225 | 30830 ft | 486 kts | 138° |
| 2026-05-08 07:07 | 4.23341 | 82.45664 | 30836 ft | 486 kts | 138° |
| 2026-05-08 07:07 | 4.18230 | 82.50117 | 30833 ft | 488 kts | 138° |
| 2026-05-08 07:08 | 4.13089 | 82.54550 | 30844 ft | 487 kts | 139° |
| 2026-05-08 07:08 | 4.07972 | 82.59009 | 30835 ft | 487 kts | 138° |
| 2026-05-08 07:09 | 4.02911 | 82.63442 | 30831 ft | 486 kts | 138° |
| 2026-05-08 07:09 | 3.97821 | 82.67886 | 30827 ft | 485 kts | 138° |
| 2026-05-08 07:10 | 3.92714 | 82.72322 | 30829 ft | 485 kts | 138° |
| 2026-05-08 07:10 | 3.87612 | 82.76752 | 30843 ft | 485 kts | 138° |
| 2026-05-08 07:11 | 3.82555 | 82.81157 | 30835 ft | 486 kts | 138° |
| 2026-05-08 07:11 | 3.77449 | 82.85600 | 30836 ft | 486 kts | 138° |
| 2026-05-08 07:12 | 3.72339 | 82.90042 | 30835 ft | 487 kts | 138° |